Time;durP1;ratioP1;P1;durP2;ratioP2;P2;SDS_P1;SDS_P2;PMS_P1;PMS_P2;Temp;Humidity;BMP_temperature;BMP_pressure;BME280_temperature;BME280_humidity;BME280_pressure;Samples;Min_cycle;Max_cycle;Signal;HPM_P1;HPM_P2
2022/11/19 00:00:53;;;;;;;538.90;507.73;;;7.80;25.80;;;;;;5072846;28;21041;-71
2022/11/19 00:03:21;;;;;;;323.03;303.23;;;7.80;26.10;;;;;;5072585;28;20995;-72
2022/11/19 00:05:49;;;;;;;519.90;488.93;;;7.90;26.00;;;;;;5072782;28;20175;-72
2022/11/19 00:08:17;;;;;;;587.53;553.03;;;7.80;26.10;;;;;;5072479;28;20901;-72
2022/11/19 00:10:44;;;;;;;527.40;495.13;;;7.90;26.00;;;;;;5072507;28;20516;-72
2022/11/19 00:13:12;;;;;;;640.80;602.37;;;7.80;25.70;;;;;;5072255;28;20436;-72
2022/11/19 00:15:37;;;;;;;726.60;681.70;;;7.90;25.80;;;;;;5072524;28;20426;-72
2022/11/19 00:18:04;;;;;;;231.00;215.40;;;8.00;24.80;;;;;;5072443;28;20509;-73
2022/11/19 00:20:31;;;;;;;664.17;624.53;;;8.10;25.10;;;;;;5072313;28;20258;-72
2022/11/19 00:22:57;;;;;;;557.97;523.93;;;8.10;24.30;;;;;;5071946;28;20560;-73
2022/11/19 00:25:25;;;;;;;580.80;546.53;;;8.10;24.20;;;;;;5072293;28;20498;-72
2022/11/19 00:27:51;;;;;;;541.77;508.73;;;8.20;24.50;;;;;;5072520;28;20553;-72
2022/11/19 00:30:18;;;;;;;420.13;392.37;;;8.10;24.70;;;;;;5072181;28;20418;-72
2022/11/19 00:32:44;;;;;;;705.17;661.77;;;8.10;24.80;;;;;;5071756;28;20484;-72
2022/11/19 00:35:11;;;;;;;629.23;592.43;;;8.20;24.60;;;;;;5072074;28;20953;-72
2022/11/19 00:37:37;;;;;;;611.57;576.37;;;8.20;25.00;;;;;;5072130;28;20444;-72
2022/11/19 00:40:06;;;;;;;506.47;476.63;;;8.20;24.70;;;;;;5072133;28;20406;-72
2022/11/19 00:42:32;;;;;;;642.60;604.70;;;8.10;24.60;;;;;;5070782;28;20512;-72
2022/11/19 00:44:58;;;;;;;306.17;284.43;;;8.10;24.80;;;;;;5071986;28;20492;-73
2022/11/19 00:47:24;;;;;;;630.00;592.50;;;8.20;24.80;;;;;;5072024;28;20490;-72
2022/11/19 00:49:49;;;;;;;691.43;647.87;;;8.20;25.00;;;;;;5071832;28;20177;-73
2022/11/19 00:52:15;;;;;;;590.37;555.37;;;8.10;25.00;;;;;;5071573;28;20192;-73
2022/11/19 00:54:40;;;;;;;484.77;453.47;;;8.10;25.30;;;;;;5071923;28;20189;-72
2022/11/19 00:57:06;;;;;;;529.50;499.00;;;8.00;24.80;;;;;;5071912;28;20519;-73
2022/11/19 00:59:31;;;;;;;612.57;576.53;;;7.90;25.20;;;;;;5071774;28;20263;-72
2022/11/19 01:01:57;;;;;;;385.67;361.00;;;7.80;25.80;;;;;;5071546;28;20215;-71
2022/11/19 01:04:22;;;;;;;437.90;411.67;;;7.80;25.50;;;;;;5071547;28;20205;-71
2022/11/19 01:06:48;;;;;;;435.47;409.00;;;7.90;24.60;;;;;;5071845;28;20204;-73
2022/11/19 01:09:14;;;;;;;647.03;608.20;;;7.90;25.00;;;;;;5071687;28;20184;-72
2022/11/19 01:11:39;;;;;;;567.93;535.17;;;7.80;25.20;;;;;;5071646;28;20200;-72
2022/11/19 01:14:06;;;;;;;394.77;367.30;;;7.70;26.00;;;;;;5071431;28;20183;-71
2022/11/19 01:16:35;;;;;;;509.30;478.43;;;7.70;26.40;;;;;;5071727;28;20236;-72
2022/11/19 01:19:00;;;;;;;537.90;504.67;;;7.70;26.00;;;;;;5071633;28;20428;-73
2022/11/19 01:21:28;;;;;;;382.73;360.70;;;7.70;25.90;;;;;;5071663;28;20442;-73
2022/11/19 01:23:54;;;;;;;637.57;598.13;;;7.70;26.00;;;;;;5071281;28;20488;-72
2022/11/19 01:26:21;;;;;;;432.57;402.80;;;7.70;25.90;;;;;;5070348;28;20413;-71
2022/11/19 01:28:47;;;;;;;649.23;610.53;;;7.70;24.80;;;;;;5071664;28;20478;-70
2022/11/19 01:31:24;;;;;;;806.47;755.77;;;7.70;25.70;;;;;;5071417;28;20456;-71
2022/11/19 01:33:50;;;;;;;558.87;524.00;;;7.70;25.30;;;;;;5071242;28;20472;-70
2022/11/19 01:36:18;;;;;;;342.77;320.57;;;7.70;26.00;;;;;;5071601;28;20417;-70
2022/11/19 01:38:53;;;;;;;516.77;485.63;;;7.70;25.60;;;;;;5071509;28;20793;-70
2022/11/19 01:41:20;;;;;;;431.73;402.87;;;7.80;25.50;;;;;;5071478;28;20452;-71
2022/11/19 01:43:50;;;;;;;636.37;598.23;;;7.80;25.70;;;;;;5071130;28;20473;-70
2022/11/19 01:46:21;;;;;;;644.63;605.43;;;7.80;25.80;;;;;;5071423;28;20502;-69
2022/11/19 01:48:59;;;;;;;311.70;290.23;;;7.70;25.10;;;;;;5071398;28;20506;-72
2022/11/19 01:51:31;;;;;;;578.07;541.30;;;7.70;24.20;;;;;;5071288;28;20428;-71
2022/11/19 01:54:02;;;;;;;612.70;575.70;;;7.80;24.40;;;;;;5072283;28;20424;-72
2022/11/19 01:56:29;;;;;;;740.83;693.63;;;7.70;24.60;;;;;;5075285;28;20407;-71
2022/11/19 01:59:01;;;;;;;498.60;468.43;;;7.70;24.40;;;;;;5075170;28;20504;-71
2022/11/19 02:01:29;;;;;;;726.67;678.87;;;7.80;24.40;;;;;;5075042;28;20784;-70
2022/11/19 02:03:59;;;;;;;613.20;574.10;;;7.80;24.40;;;;;;5074861;28;20465;-70
2022/11/19 02:06:27;;;;;;;468.23;438.90;;;7.80;24.40;;;;;;5074965;28;20429;-70
2022/11/19 02:08:53;;;;;;;681.37;640.57;;;7.80;25.30;;;;;;5074989;28;20920;-69
2022/11/19 02:11:38;;;;;;;238.03;220.57;;;7.80;24.80;;;;;;5074775;28;20469;-70
2022/11/19 02:14:22;;;;;;;595.20;559.43;;;7.70;25.30;;;;;;5074800;28;20418;-71
2022/11/19 02:17:24;;;;;;;591.73;557.17;;;7.70;25.60;;;;;;5074994;28;20437;-71
2022/11/19 02:20:24;;;;;;;842.50;787.13;;;7.80;26.10;;;;;;5074932;28;20416;-71
2022/11/19 02:23:27;;;;;;;810.20;758.30;;;7.70;26.00;;;;;;5074501;28;20872;-71
2022/11/19 02:26:14;;;;;;;598.33;559.40;;;7.70;26.00;;;;;;5074774;28;20410;-72
2022/11/19 02:29:12;;;;;;;377.10;351.93;;;7.80;25.70;;;;;;5075145;28;20418;-72
2022/11/19 02:31:40;;;;;;;676.23;633.43;;;7.80;25.40;;;;;;5058097;28;20470;-71
2022/11/19 02:34:32;;;;;;;621.93;580.20;;;7.80;25.30;;;;;;5074426;28;20445;-71
2022/11/19 02:37:14;;;;;;;533.67;499.30;;;7.70;25.60;;;;;;5073205;28;20416;-70
2022/11/19 02:40:15;;;;;;;716.83;671.07;;;7.60;25.80;;;;;;5074514;28;20428;-71
2022/11/19 02:43:05;;;;;;;688.83;644.20;;;7.60;25.90;;;;;;5064925;28;20531;-72
2022/11/19 02:45:38;;;;;;;585.60;547.73;;;7.70;25.80;;;;;;5074400;28;20425;-72
2022/11/19 02:48:16;;;;;;;776.77;726.03;;;7.70;25.30;;;;;;5074515;28;20410;-71
2022/11/19 02:50:47;;;;;;;720.37;674.47;;;7.70;25.40;;;;;;5074196;28;20483;-71
2022/11/19 02:53:13;;;;;;;397.83;371.23;;;7.80;25.10;;;;;;5074138;28;20475;-71
2022/11/19 02:55:40;;;;;;;665.30;623.07;;;7.70;26.00;;;;;;5074208;28;20421;-72
2022/11/19 03:06:35;;;;;;;544.20;513.53;;;7.60;26.30;;;;;;5072472;28;20449;-69
2022/11/19 03:09:02;;;;;;;337.47;314.30;;;7.60;27.90;;;;;;5073230;28;20454;-69
2022/11/19 03:11:29;;;;;;;149.73;137.77;;;7.50;28.70;;;;;;5072463;28;20196;-69
2022/11/19 03:17:20;;;;;;;379.40;357.33;;;7.60;28.00;;;;;;5073288;28;20419;-69
2022/11/19 03:19:49;;;;;;;432.57;404.63;;;7.50;27.70;;;;;;5069247;28;20445;-70
2022/11/19 03:22:26;;;;;;;756.20;705.93;;;7.30;27.80;;;;;;5073440;28;20447;-69
2022/11/19 03:25:12;;;;;;;492.83;459.70;;;7.30;28.70;;;;;;5072456;28;20974;-69
2022/11/19 03:27:42;;;;;;;309.03;287.53;;;7.40;28.40;;;;;;5073744;28;20984;-70
2022/11/19 03:30:09;;;;;;;331.47;309.57;;;7.40;28.50;;;;;;5073413;28;20416;-70
2022/11/19 03:32:41;;;;;;;469.20;436.20;;;7.50;28.30;;;;;;5072966;28;20501;-70
2022/11/19 03:35:13;;;;;;;196.77;180.93;;;7.40;29.20;;;;;;5073417;28;20530;-70
2022/11/19 03:37:41;;;;;;;305.97;285.00;;;7.50;28.30;;;;;;5073437;28;20516;-69
2022/11/19 03:40:09;;;;;;;660.80;616.47;;;7.50;28.30;;;;;;5073310;28;20424;-70
2022/11/19 03:42:35;;;;;;;581.87;547.27;;;7.50;28.20;;;;;;5072831;28;20860;-70
2022/11/19 03:45:10;;;;;;;667.00;624.13;;;7.50;28.10;;;;;;5073465;28;20446;-70
2022/11/19 03:47:39;;;;;;;674.00;627.93;;;7.40;28.10;;;;;;5073348;28;20450;-70
2022/11/19 03:50:28;;;;;;;313.17;291.97;;;7.30;28.40;;;;;;5073224;28;20507;-70
2022/11/19 03:52:54;;;;;;;390.17;365.13;;;7.20;29.40;;;;;;5072949;28;20525;-70
2022/11/19 03:55:25;;;;;;;504.03;469.50;;;7.30;29.80;;;;;;5073209;28;20431;-70
2022/11/19 03:57:51;;;;;;;209.83;195.07;;;7.30;29.80;;;;;;5073252;28;20412;-70
2022/11/19 04:00:17;;;;;;;612.03;573.70;;;7.40;29.90;;;;;;5073477;28;20497;-70
2022/11/19 04:02:43;;;;;;;554.60;517.73;;;7.40;29.90;;;;;;5072854;28;20197;-70
2022/11/19 04:05:08;;;;;;;682.27;637.43;;;7.20;30.50;;;;;;5071890;28;20428;-70
2022/11/19 04:07:34;;;;;;;703.47;655.63;;;7.30;30.50;;;;;;5072978;28;20290;-70
2022/11/19 04:09:59;;;;;;;266.67;248.90;;;7.20;30.50;;;;;;5072871;28;20544;-70
2022/11/19 04:12:25;;;;;;;632.03;590.07;;;7.10;32.00;;;;;;5072617;28;20208;-70
2022/11/19 04:14:51;;;;;;;747.23;695.00;;;7.10;32.40;;;;;;5073001;28;20182;-70
2022/11/19 04:17:18;;;;;;;706.63;658.57;;;7.10;32.50;;;;;;5072983;28;20215;-70
2022/11/19 04:19:44;;;;;;;432.27;401.67;;;7.10;31.40;;;;;;5072765;28;20437;-70
2022/11/19 04:22:10;;;;;;;638.60;596.23;;;7.20;31.10;;;;;;5072501;28;20442;-71
2022/11/19 04:24:35;;;;;;;769.57;716.17;;;7.10;31.50;;;;;;5073200;28;20657;-71
2022/11/19 04:27:01;;;;;;;363.50;335.97;;;7.10;31.20;;;;;;5072700;28;20477;-71
2022/11/19 04:29:26;;;;;;;372.13;347.33;;;7.10;31.40;;;;;;5072860;28;20537;-71
2022/11/19 04:31:52;;;;;;;395.10;370.23;;;7.10;29.70;;;;;;5072260;28;20667;-71
2022/11/19 04:34:18;;;;;;;403.50;375.30;;;7.10;30.00;;;;;;5072488;28;20188;-70
2022/11/19 04:36:43;;;;;;;347.70;322.87;;;7.00;30.70;;;;;;5072304;28;20273;-70
2022/11/19 04:39:11;;;;;;;662.00;619.30;;;7.10;30.90;;;;;;5072530;28;20190;-70
2022/11/19 04:41:38;;;;;;;196.50;182.97;;;7.20;30.40;;;;;;5072243;28;20203;-70
2022/11/19 04:44:03;;;;;;;707.13;657.97;;;7.20;31.20;;;;;;5071870;28;20475;-71
2022/11/19 04:46:30;;;;;;;257.20;239.10;;;7.30;29.80;;;;;;5072400;28;20406;-76
2022/11/19 04:48:55;;;;;;;531.53;496.33;;;7.20;30.00;;;;;;5072420;28;20493;-71
2022/11/19 04:51:21;;;;;;;593.13;552.17;;;7.20;30.00;;;;;;5072140;28;20571;-71
2022/11/19 04:53:47;;;;;;;432.53;405.50;;;7.30;29.80;;;;;;5071700;28;20643;-70
2022/11/19 04:56:15;;;;;;;680.13;635.67;;;7.30;30.30;;;;;;5071734;28;20176;-69
2022/11/19 04:58:41;;;;;;;397.70;370.40;;;7.40;29.90;;;;;;5071998;28;20571;-70
2022/11/19 05:01:07;;;;;;;623.00;582.17;;;7.50;29.90;;;;;;5070643;28;20446;-70
2022/11/19 05:03:33;;;;;;;748.63;697.20;;;7.60;29.10;;;;;;5071603;28;20957;-70
2022/11/19 05:05:59;;;;;;;582.30;544.57;;;7.60;28.90;;;;;;5072029;28;20679;-70
2022/11/19 05:08:24;;;;;;;610.47;570.57;;;7.60;28.90;;;;;;5072083;28;20651;-70
2022/11/19 05:10:50;;;;;;;633.47;592.17;;;7.50;29.00;;;;;;5070921;28;20469;-71
2022/11/19 05:13:16;;;;;;;425.97;395.70;;;7.60;29.10;;;;;;5071973;28;20184;-70
2022/11/19 05:15:41;;;;;;;537.77;499.00;;;7.50;29.70;;;;;;5070273;28;20429;-70
2022/11/19 05:18:07;;;;;;;504.67;470.13;;;7.50;29.50;;;;;;5071808;28;20225;-69
2022/11/19 05:20:32;;;;;;;667.47;624.57;;;7.40;29.30;;;;;;5071655;28;20291;-69
2022/11/19 05:22:58;;;;;;;649.83;605.57;;;7.50;30.00;;;;;;5071302;28;20207;-70
2022/11/19 05:25:24;;;;;;;658.10;614.67;;;7.50;29.50;;;;;;5070390;28;20636;-69
2022/11/19 05:27:50;;;;;;;730.40;679.53;;;7.60;29.20;;;;;;5071548;28;20417;-70
2022/11/19 05:30:16;;;;;;;551.47;512.47;;;7.70;29.00;;;;;;5071261;28;20173;-69
2022/11/19 05:32:41;;;;;;;389.43;362.47;;;7.70;28.40;;;;;;5094325;22;20542;-70
2022/11/19 05:35:07;;;;;;;676.77;630.63;;;7.70;28.40;;;;;;5071505;28;20172;-70
2022/11/19 05:37:33;;;;;;;681.00;634.70;;;7.70;28.30;;;;;;5053587;28;20176;-69
2022/11/19 05:39:58;;;;;;;692.87;643.57;;;7.60;28.10;;;;;;5053579;28;20422;-69
2022/11/19 05:42:24;;;;;;;530.57;496.80;;;7.60;28.60;;;;;;5071108;28;20278;-69
2022/11/19 05:44:49;;;;;;;688.27;641.93;;;7.50;29.10;;;;;;5071516;28;20173;-70
2022/11/19 05:47:16;;;;;;;731.77;682.13;;;7.50;29.30;;;;;;5071540;28;20210;-70
2022/11/19 05:49:41;;;;;;;756.23;703.10;;;7.40;29.20;;;;;;5070197;28;20228;-70
2022/11/19 05:52:07;;;;;;;399.93;373.13;;;7.40;29.70;;;;;;5071216;28;20433;-70
2022/11/19 05:54:33;;;;;;;331.30;309.80;;;7.50;29.50;;;;;;5071560;28;20187;-69
2022/11/19 05:56:58;;;;;;;478.50;444.57;;;7.50;29.10;;;;;;5071601;28;20572;-72
2022/11/19 05:59:24;;;;;;;477.73;450.53;;;7.60;28.90;;;;;;5070266;28;20181;-70
2022/11/19 06:01:49;;;;;;;710.07;661.87;;;7.60;29.10;;;;;;5071199;28;20211;-71
2022/11/19 06:04:15;;;;;;;618.27;579.30;;;7.70;29.10;;;;;;5071197;28;20713;-71
2022/11/19 06:06:40;;;;;;;318.33;297.80;;;7.70;29.10;;;;;;5070127;28;20186;-72
2022/11/19 06:09:07;;;;;;;659.27;615.00;;;7.70;28.90;;;;;;5071325;28;20172;-71
2022/11/19 06:11:48;;;;;;;650.93;607.47;;;7.70;29.30;;;;;;5071225;28;20220;-72
2022/11/19 06:14:18;;;;;;;493.10;458.47;;;7.70;29.70;;;;;;5071348;28;20422;-71
2022/11/19 06:16:43;;;;;;;520.80;484.03;;;7.70;30.00;;;;;;5071411;28;20417;-71
2022/11/19 06:19:09;;;;;;;586.00;547.33;;;7.70;30.00;;;;;;5071108;28;20775;-71
2022/11/19 06:21:35;;;;;;;291.70;272.67;;;7.70;30.10;;;;;;5071223;28;20227;-69
2022/11/19 06:24:00;;;;;;;674.60;628.50;;;7.60;30.00;;;;;;5070343;28;20548;-69
2022/11/19 06:26:28;;;;;;;699.63;651.83;;;7.50;30.00;;;;;;5071636;28;20200;-70
2022/11/19 06:28:53;;;;;;;340.87;317.17;;;7.40;30.30;;;;;;5071500;28;20194;-70
2022/11/19 06:31:20;;;;;;;317.70;297.27;;;7.40;30.30;;;;;;5069763;28;20460;-70
2022/11/19 06:33:46;;;;;;;395.47;367.70;;;7.50;30.00;;;;;;5069727;28;20595;-69
2022/11/19 06:36:12;;;;;;;306.97;286.37;;;7.30;31.10;;;;;;5070310;28;20775;-69
2022/11/19 06:38:37;;;;;;;439.73;409.57;;;7.20;31.60;;;;;;5071262;28;20466;-71
2022/11/19 06:41:03;;;;;;;460.73;428.67;;;7.30;31.30;;;;;;5072287;28;20622;-69
2022/11/19 06:43:28;;;;;;;761.00;704.70;;;7.20;33.10;;;;;;5073468;28;20459;-69
2022/11/19 06:45:54;;;;;;;502.77;465.87;;;7.20;32.60;;;;;;5074555;28;20176;-69
2022/11/19 06:48:20;;;;;;;665.93;619.83;;;7.30;32.90;;;;;;5074623;28;20184;-69
2022/11/19 06:50:45;;;;;;;681.60;632.93;;;7.40;32.10;;;;;;5073252;28;20620;-70
2022/11/19 06:53:12;;;;;;;687.93;638.93;;;7.50;32.10;;;;;;5073166;28;20674;-69
2022/11/19 06:55:37;;;;;;;407.17;379.40;;;7.50;31.20;;;;;;5074461;28;20184;-69
2022/11/19 06:58:04;;;;;;;478.07;443.17;;;7.30;30.50;;;;;;5073282;28;20413;-69
2022/11/19 07:00:31;;;;;;;366.90;343.93;;;7.40;32.10;;;;;;5074244;28;20429;-70
2022/11/19 07:02:56;;;;;;;649.13;603.13;;;7.40;32.60;;;;;;5074206;28;20459;-70
2022/11/19 07:05:22;;;;;;;717.53;666.57;;;7.50;31.30;;;;;;5073157;28;20425;-69
2022/11/19 07:07:47;;;;;;;612.20;573.27;;;7.60;30.60;;;;;;5074231;28;20262;-69
2022/11/19 07:10:13;;;;;;;297.73;276.33;;;7.70;30.00;;;;;;5074023;28;20169;-70
2022/11/19 07:12:39;;;;;;;579.97;541.60;;;7.70;29.20;;;;;;5072462;28;20263;-69
2022/11/19 07:15:05;;;;;;;753.93;700.43;;;7.70;29.70;;;;;;5073885;28;20411;-69
2022/11/19 07:17:30;;;;;;;616.20;574.13;;;7.70;30.00;;;;;;5074144;28;20187;-70
2022/11/19 07:19:56;;;;;;;407.70;379.23;;;7.70;29.70;;;;;;5074121;28;20422;-70
2022/11/19 07:22:21;;;;;;;618.67;574.70;;;7.70;30.10;;;;;;5073718;28;20262;-68
2022/11/19 07:24:47;;;;;;;420.77;392.13;;;7.60;29.90;;;;;;5074315;28;20264;-72
2022/11/19 07:27:13;;;;;;;152.70;140.73;;;7.60;30.00;;;;;;5074316;28;20273;-71
2022/11/19 07:29:39;;;;;;;550.43;511.17;;;7.70;28.90;;;;;;5072625;28;20184;-71
2022/11/19 07:32:05;;;;;;;674.50;628.23;;;7.70;28.30;;;;;;5073327;28;20469;-71
2022/11/19 07:34:30;;;;;;;449.00;418.20;;;7.80;28.60;;;;;;5072558;28;20224;-71
2022/11/19 07:36:56;;;;;;;419.97;391.60;;;7.90;28.90;;;;;;5073583;28;20195;-72
2022/11/19 07:39:21;;;;;;;445.73;413.33;;;8.00;27.90;;;;;;5071939;28;20188;-69
2022/11/19 07:44:31;;;;;;;473.33;443.00;;;8.00;28.10;;;;;;5073060;28;20300;-71
2022/11/19 07:46:57;;;;;;;377.40;351.77;;;7.80;28.70;;;;;;5073238;28;20878;-70
2022/11/19 07:49:23;;;;;;;313.60;290.90;;;7.70;30.00;;;;;;5073074;28;20305;-69
2022/11/19 07:51:49;;;;;;;384.23;358.73;;;7.60;30.00;;;;;;5072490;28;20189;-70
2022/11/19 07:54:15;;;;;;;434.03;404.30;;;7.60;30.40;;;;;;5072150;28;20441;-69
2022/11/19 07:56:40;;;;;;;351.53;328.50;;;7.50;31.00;;;;;;5070258;28;20266;-70
2022/11/19 07:59:06;;;;;;;531.53;500.93;;;7.70;31.30;;;;;;5057959;28;20194;-70
2022/11/19 08:01:31;;;;;;;478.67;444.97;;;7.80;30.30;;;;;;5058042;28;20212;-70
2022/11/19 08:03:58;;;;;;;598.43;556.47;;;7.80;30.90;;;;;;5053629;28;20221;-70
2022/11/19 08:06:26;;;;;;;467.53;436.57;;;7.70;29.80;;;;;;5063928;28;20641;-69
2022/11/19 08:08:52;;;;;;;595.50;555.33;;;7.60;30.50;;;;;;5054384;28;20602;-70
2022/11/19 08:11:18;;;;;;;528.03;491.10;;;7.50;30.80;;;;;;5066423;28;20459;-70
2022/11/19 08:13:44;;;;;;;552.10;514.30;;;7.70;31.40;;;;;;5068862;28;20436;-70
2022/11/19 08:18:10;;;;;;;543.50;507.97;;;7.80;30.60;;;;;;5061734;28;20188;-70
2022/11/19 08:18:58;;;;;;;395.03;367.03;;;7.60;30.00;;;;;;5052578;28;20205;-70
2022/11/19 08:21:23;;;;;;;229.70;212.87;;;7.80;30.90;;;;;;5065452;28;20447;-70
2022/11/19 08:23:49;;;;;;;498.20;465.00;;;7.70;30.00;;;;;;5072075;28;20736;-70
2022/11/19 08:26:14;;;;;;;463.53;430.40;;;7.70;30.00;;;;;;5071041;28;20185;-70
2022/11/19 08:28:40;;;;;;;179.70;166.77;;;7.70;30.10;;;;;;5058876;28;20189;-69
2022/11/19 08:31:07;;;;;;;215.30;200.57;;;7.80;29.90;;;;;;5064076;28;20220;-70
2022/11/19 08:33:33;;;;;;;268.53;249.10;;;8.00;29.40;;;;;;5070742;28;20268;-72
2022/11/19 08:35:59;;;;;;;563.23;526.70;;;8.20;28.70;;;;;;5072110;28;20422;-71
2022/11/19 08:38:24;;;;;;;551.47;513.57;;;8.20;28.10;;;;;;5071259;28;20785;-69
2022/11/19 08:42:58;;;;;;;263.50;246.10;;;8.20;28.40;;;;;;5072337;28;20189;-69
2022/11/19 08:43:39;;;;;;;552.00;518.93;;;8.20;27.90;;;;;;5071932;28;20311;-70
2022/11/19 08:46:06;;;;;;;392.93;366.97;;;8.20;28.30;;;;;;5069809;28;20474;-71
2022/11/19 08:48:31;;;;;;;512.10;480.83;;;8.30;26.40;;;;;;5067033;28;20191;-70
2022/11/19 08:50:57;;;;;;;313.80;291.63;;;8.50;26.50;;;;;;5052804;28;20430;-71
2022/11/19 08:53:23;;;;;;;415.27;387.23;;;8.60;26.10;;;;;;5071474;28;20185;-70
2022/11/19 08:55:51;;;;;;;798.77;746.33;;;8.50;26.50;;;;;;5071825;28;20411;-69
2022/11/19 08:58:17;;;;;;;608.87;570.60;;;8.80;25.60;;;;;;5071934;28;20242;-70
2022/11/19 09:00:43;;;;;;;596.20;561.40;;;9.10;25.40;;;;;;5061399;28;20428;-70
2022/11/19 09:03:08;;;;;;;521.03;489.07;;;9.30;24.40;;;;;;5050906;28;20209;-70
2022/11/19 09:05:34;;;;;;;435.13;408.47;;;9.50;23.80;;;;;;5053836;28;20194;-69
2022/11/19 09:08:00;;;;;;;213.93;198.40;;;9.60;23.00;;;;;;5051672;28;20185;-70
2022/11/19 09:10:26;;;;;;;497.43;468.00;;;9.60;23.10;;;;;;5051650;28;20261;-69
2022/11/19 09:12:52;;;;;;;565.30;531.30;;;9.80;22.70;;;;;;5051191;28;20198;-69
2022/11/19 09:15:18;;;;;;;401.60;377.40;;;9.60;22.70;;;;;;5063451;28;20648;-69
2022/11/19 09:17:43;;;;;;;506.63;473.73;;;9.60;22.30;;;;;;5071149;28;20788;-69
2022/11/19 09:20:10;;;;;;;442.23;413.23;;;9.50;20.90;;;;;;5071617;28;20409;-71
2022/11/19 09:22:36;;;;;;;519.27;489.37;;;9.40;21.10;;;;;;5071175;28;20205;-71
2022/11/19 09:25:02;;;;;;;438.57;409.70;;;9.30;21.50;;;;;;5071319;28;20742;-70
2022/11/19 09:27:27;;;;;;;567.97;533.33;;;9.00;21.80;;;;;;5071363;28;20416;-70
2022/11/19 09:29:53;;;;;;;341.00;318.50;;;8.80;22.60;;;;;;5070799;28;20442;-69
2022/11/19 09:32:19;;;;;;;360.23;337.07;;;8.70;22.50;;;;;;5065117;28;20245;-69
2022/11/19 09:34:44;;;;;;;402.77;379.60;;;8.80;21.80;;;;;;5051328;28;20273;-69
2022/11/19 09:37:10;;;;;;;372.10;348.83;;;8.70;22.50;;;;;;5063077;28;20213;-69
2022/11/19 09:39:36;;;;;;;314.17;294.60;;;8.80;23.10;;;;;;5071844;28;20648;-69
2022/11/19 09:42:35;;;;;;;531.17;497.17;;;8.80;21.70;;;;;;5071452;28;20468;-69
2022/11/19 09:45:18;;;;;;;367.70;341.57;;;9.10;21.80;;;;;;5069466;28;20440;-70
2022/11/19 09:47:53;;;;;;;446.70;420.13;;;9.00;20.50;;;;;;5071171;28;20486;-69
2022/11/19 09:50:22;;;;;;;444.93;415.90;;;9.10;21.40;;;;;;5071376;28;20403;-69
2022/11/19 09:53:21;;;;;;;154.20;141.93;;;9.10;21.60;;;;;;5071230;28;20424;-69
2022/11/19 09:55:49;;;;;;;443.07;415.63;;;9.20;21.20;;;;;;5049708;28;20822;-69
2022/11/19 09:58:18;;;;;;;546.93;505.93;;;9.20;20.90;;;;;;5053087;28;20975;-69
2022/11/19 10:00:44;;;;;;;481.07;450.73;;;9.30;21.60;;;;;;5051301;28;20420;-69
2022/11/19 10:03:16;;;;;;;421.53;396.40;;;9.20;20.80;;;;;;5050861;28;20456;-69
2022/11/19 10:06:11;;;;;;;568.30;534.70;;;9.30;21.60;;;;;;5052669;28;20421;-69
2022/11/19 10:09:11;;;;;;;346.73;324.57;;;9.60;21.50;;;;;;5070770;28;20408;-69
2022/11/19 10:11:49;;;;;;;554.43;521.77;;;10.00;19.10;;;;;;5071034;28;20440;-70
2022/11/19 10:14:44;;;;;;;385.23;361.60;;;10.10;18.50;;;;;;5070891;28;20400;-70
2022/11/19 10:17:31;;;;;;;359.40;337.80;;;10.20;18.50;;;;;;5074884;28;20415;-69
2022/11/19 10:20:07;;;;;;;187.10;172.50;;;9.80;18.90;;;;;;5073621;28;20748;-70
2022/11/19 10:22:50;;;;;;;257.53;240.17;;;9.90;19.10;;;;;;5072819;28;20972;-69
2022/11/19 10:25:20;;;;;;;261.63;243.23;;;10.00;18.20;;;;;;5056019;28;20455;-70
2022/11/19 10:28:15;;;;;;;360.10;337.43;;;9.70;18.90;;;;;;5073677;28;20506;-70
2022/11/19 10:30:47;;;;;;;536.73;503.20;;;9.40;19.70;;;;;;5064847;28;20823;-70
2022/11/19 10:33:24;;;;;;;477.73;448.53;;;9.40;21.40;;;;;;5074228;28;20466;-69
2022/11/19 10:35:56;;;;;;;590.73;555.20;;;9.30;21.30;;;;;;5074305;28;20439;-69
2022/11/19 10:38:36;;;;;;;375.47;352.90;;;9.50;20.30;;;;;;5066289;28;20765;-69
2022/11/19 10:41:34;;;;;;;473.53;442.63;;;9.80;20.60;;;;;;5054929;28;20821;-68
2022/11/19 10:44:35;;;;;;;521.57;485.97;;;10.00;19.60;;;;;;5054186;28;20546;-69
2022/11/19 10:46:59;;;;;;;477.30;447.23;;;9.90;19.20;;;;;;5060833;28;20430;-69
2022/11/19 10:49:25;;;;;;;561.67;529.37;;;9.80;20.90;;;;;;5074785;28;20400;-69
2022/11/19 10:51:51;;;;;;;585.23;548.17;;;9.80;20.50;;;;;;5074692;28;20443;-69
2022/11/19 10:54:26;;;;;;;531.33;496.83;;;9.30;22.00;;;;;;5074264;28;20201;-69
2022/11/19 10:56:53;;;;;;;535.00;502.37;;;9.10;22.80;;;;;;5073376;28;20238;-71
2022/11/19 10:59:22;;;;;;;418.40;390.93;;;9.40;23.50;;;;;;5072626;28;20431;-70
2022/11/19 11:01:52;;;;;;;359.20;336.00;;;9.50;23.50;;;;;;5073825;28;20436;-69
2022/11/19 11:04:26;;;;;;;449.53;422.43;;;9.80;21.90;;;;;;5073912;28;20554;-69
2022/11/19 11:07:00;;;;;;;482.23;451.47;;;10.00;22.00;;;;;;5074096;28;20409;-69
2022/11/19 11:09:40;;;;;;;527.23;491.87;;;10.30;20.80;;;;;;5074201;28;20745;-69
2022/11/19 11:15:19;;;;;;;524.53;492.37;;;10.20;20.10;;;;;;5073832;28;20858;-68
2022/11/19 11:17:46;;;;;;;431.63;405.03;;;10.30;20.30;;;;;;5074037;28;20412;-68
2022/11/19 11:20:14;;;;;;;289.13;269.67;;;10.40;20.00;;;;;;5073550;28;20420;-69
2022/11/19 11:22:42;;;;;;;494.57;462.73;;;10.20;18.80;;;;;;5072213;28;20447;-69
2022/11/19 11:25:27;;;;;;;392.73;368.47;;;10.40;18.30;;;;;;5072794;28;20926;-68
2022/11/19 11:28:05;;;;;;;508.83;478.47;;;10.50;18.70;;;;;;5072819;28;20645;-69
2022/11/19 11:30:31;;;;;;;432.03;406.50;;;10.40;18.60;;;;;;5073806;28;20946;-70
2022/11/19 11:32:57;;;;;;;290.13;270.93;;;10.50;18.70;;;;;;5072640;28;20547;-69
2022/11/19 11:35:34;;;;;;;376.07;352.30;;;10.50;18.30;;;;;;5073650;28;20205;-68
2022/11/19 11:38:01;;;;;;;393.40;368.43;;;10.60;17.90;;;;;;5071233;28;20186;-68
2022/11/19 11:40:28;;;;;;;492.50;462.50;;;10.80;18.80;;;;;;5073386;28;20466;-70
2022/11/19 11:42:54;;;;;;;247.93;231.30;;;10.70;17.80;;;;;;5073235;28;20547;-69
2022/11/19 11:45:31;;;;;;;498.77;468.53;;;10.60;18.00;;;;;;5073448;28;20891;-70
2022/11/19 11:48:03;;;;;;;450.87;422.97;;;10.30;17.20;;;;;;5073405;28;20415;-69
2022/11/19 11:50:30;;;;;;;544.20;509.83;;;10.40;18.30;;;;;;5073048;28;20904;-70
2022/11/19 11:52:58;;;;;;;608.87;571.77;;;10.50;18.70;;;;;;5072643;28;20482;-70
2022/11/19 11:55:24;;;;;;;517.77;485.27;;;10.40;18.60;;;;;;5071825;28;20459;-72
2022/11/19 11:58:01;;;;;;;408.20;381.73;;;10.10;18.40;;;;;;5073137;28;20435;-70
2022/11/19 12:00:38;;;;;;;277.10;257.73;;;10.20;18.50;;;;;;5071753;28;20564;-70
2022/11/19 12:03:09;;;;;;;406.27;380.73;;;10.30;18.50;;;;;;5072679;28;20808;-71
2022/11/19 12:05:50;;;;;;;335.13;312.37;;;10.30;17.70;;;;;;5056325;28;20432;-70
2022/11/19 12:08:40;;;;;;;387.60;363.63;;;10.40;16.80;;;;;;5069326;28;20780;-71
2022/11/19 12:11:21;;;;;;;626.77;588.93;;;10.60;16.20;;;;;;5072650;28;20436;-71
2022/11/19 12:13:56;;;;;;;277.10;258.43;;;10.80;16.70;;;;;;5072729;28;20776;-71
2022/11/19 12:16:54;;;;;;;568.30;533.13;;;10.70;17.70;;;;;;5071316;28;20523;-71
2022/11/19 12:19:31;;;;;;;204.20;189.67;;;10.50;14.80;;;;;;5072829;28;20417;-71
2022/11/19 12:22:08;;;;;;;409.33;383.70;;;9.90;16.80;;;;;;5072399;28;20930;-71
2022/11/19 12:24:58;;;;;;;312.80;291.90;;;9.80;17.80;;;;;;5072668;28;20468;-71
2022/11/19 12:27:23;;;;;;;351.83;329.33;;;10.00;17.30;;;;;;5072559;28;20903;-71
2022/11/19 12:30:10;;;;;;;418.40;392.07;;;10.20;18.20;;;;;;5072283;28;20416;-71
2022/11/19 12:33:05;;;;;;;243.63;227.23;;;10.10;17.60;;;;;;5071986;28;20209;-71
2022/11/19 12:35:37;;;;;;;345.80;326.07;;;10.30;17.50;;;;;;5072179;28;20435;-71
2022/11/19 12:38:25;;;;;;;487.40;457.20;;;10.60;17.00;;;;;;5071933;28;20424;-71
2022/11/19 12:41:05;;;;;;;392.67;367.73;;;10.70;17.20;;;;;;5071064;28;20420;-70
2022/11/19 12:43:59;;;;;;;359.33;337.33;;;10.70;16.50;;;;;;5058945;28;20496;-71
2022/11/19 12:46:43;;;;;;;486.50;455.43;;;10.50;17.20;;;;;;5072153;28;20445;-71
2022/11/19 12:49:41;;;;;;;421.50;394.63;;;10.60;17.10;;;;;;5072181;28;20411;-70